Time;durP1;ratioP1;P1;durP2;ratioP2;P2;SDS_P1;SDS_P2;PMS_P1;PMS_P2;Temp;Humidity;BMP_temperature;BMP_pressure;BME280_temperature;BME280_humidity;BME280_pressure;Samples;Min_cycle;Max_cycle;Signal;HPM_P1;HPM_P2
2021/04/30 00:01:55;;;;;;;43.47;30.75;;;;;;;-143.98;100.00;68091.63;6287386;22;20051;-81
2021/04/30 00:04:22;;;;;;;43.65;31.83;;;;;;;-143.98;100.00;68091.63;6287581;22;20042;-82
2021/04/30 00:06:48;;;;;;;47.63;33.47;;;;;;;-143.98;100.00;68091.63;6286586;22;20035;-81
2021/04/30 00:09:14;;;;;;;55.22;35.50;;;;;;;-143.98;100.00;68091.63;6287657;22;20035;-82
2021/04/30 00:11:40;;;;;;;51.67;34.35;;;;;;;-143.98;100.00;68091.63;6288150;22;20027;-81
2021/04/30 00:14:07;;;;;;;48.67;34.15;;;;;;;-143.98;100.00;68091.63;6286947;22;20032;-82
2021/04/30 00:16:39;;;;;;;52.33;36.17;;;;;;;-143.98;100.00;68091.63;6287935;22;20023;-81
2021/04/30 00:19:07;;;;;;;54.50;35.58;;;;;;;-143.98;100.00;68091.63;6287687;22;20027;-81
2021/04/30 00:21:34;;;;;;;56.00;37.13;;;;;;;-143.98;100.00;68091.63;6261618;22;20023;-81
2021/04/30 00:24:05;;;;;;;53.40;36.78;;;;;;;-143.98;100.00;68091.63;6288762;22;20046;-81
2021/04/30 00:26:32;;;;;;;57.05;39.22;;;;;;;-143.98;100.00;68091.63;6287656;22;20191;-80
2021/04/30 00:28:59;;;;;;;61.47;39.67;;;;;;;-143.98;100.00;68091.63;6287973;22;20027;-81
2021/04/30 00:31:27;;;;;;;61.85;39.13;;;;;;;-143.98;100.00;68091.63;6286405;22;20038;-81
2021/04/30 00:34:06;;;;;;;63.53;41.25;;;;;;;-143.98;100.00;68091.63;6288853;22;20082;-81
2021/04/30 00:36:33;;;;;;;58.05;36.08;;;;;;;-143.98;100.00;68091.63;6287212;22;20024;-82
2021/04/30 00:38:59;;;;;;;55.25;36.70;;;;;;;-143.98;100.00;68091.63;6287125;22;20027;-81
2021/04/30 00:41:51;;;;;;;51.55;36.10;;;;;;;-143.98;100.00;68091.63;6286974;22;20024;-81
2021/04/30 00:44:17;;;;;;;51.35;36.65;;;;;;;-143.98;100.00;68091.63;6288311;22;20074;-80
2021/04/30 00:46:45;;;;;;;49.00;34.38;;;;;;;-143.98;100.00;68091.63;6289015;22;20030;-81
2021/04/30 00:49:12;;;;;;;53.35;35.65;;;;;;;-143.98;100.00;68091.63;6288669;22;20038;-81
2021/04/30 00:51:48;;;;;;;59.92;39.58;;;;;;;-143.98;100.00;68091.63;6286527;22;20023;-81
2021/04/30 00:54:14;;;;;;;53.55;38.20;;;;;;;-143.98;100.00;68091.63;6286663;22;20032;-81
2021/04/30 00:56:41;;;;;;;59.05;39.75;;;;;;;-143.98;100.00;68091.63;6290127;22;20027;-81
2021/04/30 00:59:07;;;;;;;54.97;37.85;;;;;;;-143.98;100.00;68091.63;6292393;22;20010;-81
2021/04/30 01:01:38;;;;;;;54.97;39.60;;;;;;;-143.98;100.00;68091.63;6302051;22;20011;-80
2021/04/30 01:04:05;;;;;;;55.97;38.90;;;;;;;-143.98;100.00;68091.63;6302450;22;20023;-81
2021/04/30 01:06:32;;;;;;;59.20;40.38;;;;;;;-143.98;100.00;68091.63;6300849;22;20027;-81
2021/04/30 01:08:58;;;;;;;56.92;38.00;;;;;;;-143.98;100.00;68091.63;6263847;22;20099;-81
2021/04/30 01:11:25;;;;;;;51.42;36.80;;;;;;;-143.98;100.00;68091.63;6288750;22;20030;-81
2021/04/30 01:13:51;;;;;;;61.03;38.42;;;;;;;-143.98;100.00;68091.63;6271049;22;20018;-81
2021/04/30 01:16:17;;;;;;;51.85;35.58;;;;;;;-143.98;100.00;68091.63;6301963;22;20071;-81
2021/04/30 01:18:47;;;;;;;52.72;36.20;;;;;;;-143.98;100.00;68091.63;6293228;22;20027;-81
2021/04/30 01:21:14;;;;;;;52.42;35.88;;;;;;;-143.98;100.00;68091.63;6285826;22;20278;-81
2021/04/30 01:23:49;;;;;;;45.00;33.40;;;;;;;-143.98;100.00;68091.63;6261032;22;20027;-81
2021/04/30 01:26:16;;;;;;;49.30;34.25;;;;;;;-143.98;100.00;68091.63;6263583;22;20023;-81
2021/04/30 01:28:42;;;;;;;49.00;35.17;;;;;;;-143.98;100.00;68091.63;6289036;22;20027;-81
2021/04/30 01:31:13;;;;;;;49.78;35.08;;;;;;;-143.98;100.00;68091.63;6288645;22;20094;-82
2021/04/30 01:33:39;;;;;;;49.67;36.40;;;;;;;-143.98;100.00;68091.63;6285671;22;20059;-81
2021/04/30 01:36:06;;;;;;;56.88;39.00;;;;;;;-143.98;100.00;68091.63;6287621;22;20080;-82
2021/04/30 01:38:33;;;;;;;59.95;40.03;;;;;;;-143.98;100.00;68091.63;6284116;22;20032;-82
2021/04/30 01:40:59;;;;;;;59.47;40.95;;;;;;;-143.98;100.00;68091.63;6285267;22;20105;-81
2021/04/30 01:43:26;;;;;;;60.53;39.13;;;;;;;-143.98;100.00;68091.63;6290048;22;20031;-81
2021/04/30 01:45:56;;;;;;;55.15;37.25;;;;;;;-143.98;100.00;68091.63;6320600;22;20031;-81
2021/04/30 01:48:39;;;;;;;58.60;39.70;;;;;;;-143.98;100.00;68091.63;6301337;22;20043;-82
2021/04/30 01:51:05;;;;;;;61.13;40.35;;;;;;;-143.98;100.00;68091.63;6298272;22;20035;-81
2021/04/30 01:53:34;;;;;;;68.60;42.33;;;;;;;-143.98;100.00;68091.63;6291157;22;20034;-81
2021/04/30 01:56:04;;;;;;;61.83;40.67;;;;;;;-143.98;100.00;68091.63;6261948;22;20027;-82
2021/04/30 01:58:30;;;;;;;61.70;41.63;;;;;;;-143.98;100.00;68091.63;6293344;22;20026;-82
2021/04/30 02:00:57;;;;;;;59.13;40.70;;;;;;;-143.98;100.00;68091.63;6300592;22;20035;-81
2021/04/30 02:03:24;;;;;;;70.78;43.60;;;;;;;-143.98;100.00;68091.63;6294423;22;20035;-82
2021/04/30 02:05:54;;;;;;;62.88;42.92;;;;;;;-143.98;100.00;68091.63;6290015;22;20028;-81
2021/04/30 02:08:21;;;;;;;64.20;41.92;;;;;;;-143.98;100.00;68091.63;6262682;22;20046;-84
2021/04/30 02:10:53;;;;;;;63.85;42.67;;;;;;;-143.98;100.00;68091.63;6287783;22;20028;-82
2021/04/30 02:13:22;;;;;;;71.47;45.38;;;;;;;-143.98;100.00;68091.63;6288558;22;20085;-81
2021/04/30 02:15:55;;;;;;;63.78;41.50;;;;;;;-143.98;100.00;68091.63;6288111;22;20079;-82
2021/04/30 02:18:27;;;;;;;63.13;42.17;;;;;;;-143.98;100.00;68091.63;6287091;22;20050;-82
2021/04/30 02:20:56;;;;;;;64.88;43.67;;;;;;;-143.98;100.00;68091.63;6284410;22;20263;-82
2021/04/30 02:23:28;;;;;;;57.78;39.60;;;;;;;-143.98;100.00;68091.63;6285745;22;20024;-81
2021/04/30 02:25:54;;;;;;;65.10;40.13;;;;;;;-143.98;100.00;68091.63;6289114;22;20027;-83
2021/04/30 02:28:21;;;;;;;56.25;37.42;;;;;;;-143.98;100.00;68091.63;6296720;22;20027;-83
2021/04/30 02:30:49;;;;;;;66.82;41.33;;;;;;;-143.98;100.00;68091.63;6299174;22;20474;-83
2021/04/30 02:33:18;;;;;;;65.50;45.00;;;;;;;-143.98;100.00;68091.63;6299765;22;20028;-83
2021/04/30 02:35:48;;;;;;;67.15;44.22;;;;;;;-143.98;100.00;68091.63;6296256;22;20026;-83
2021/04/30 02:38:39;;;;;;;71.45;43.60;;;;;;;-143.98;100.00;68091.63;6298306;22;20015;-83
2021/04/30 02:41:05;;;;;;;65.60;42.00;;;;;;;-143.98;100.00;68091.63;6294427;22;20032;-82
2021/04/30 02:43:31;;;;;;;71.22;43.00;;;;;;;-143.98;100.00;68091.63;6289141;22;20409;-82
2021/04/30 02:46:00;;;;;;;75.88;46.45;;;;;;;-143.98;100.00;68091.63;6288559;22;20166;-83
2021/04/30 02:48:34;;;;;;;79.93;46.80;;;;;;;-143.98;100.00;68091.63;6262000;22;20065;-82
2021/04/30 02:51:04;;;;;;;72.05;43.80;;;;;;;-143.98;100.00;68091.63;6262530;22;20028;-83
2021/04/30 02:53:30;;;;;;;76.78;46.03;;;;;;;-143.98;100.00;68091.63;6288103;22;20034;-81
2021/04/30 02:56:12;;;;;;;80.82;47.38;;;;;;;-143.98;100.00;68091.63;6286956;22;20043;-81
2021/04/30 02:58:38;;;;;;;79.53;46.75;;;;;;;-143.98;100.00;68091.63;6287195;22;20035;-82
2021/04/30 03:01:04;;;;;;;87.95;48.53;;;;;;;-143.98;100.00;68091.63;6288447;22;20023;-82
2021/04/30 03:03:34;;;;;;;77.65;45.60;;;;;;;-143.98;100.00;68091.63;6286520;22;20090;-82
2021/04/30 03:06:04;;;;;;;80.72;47.28;;;;;;;-143.98;100.00;68091.63;6260455;22;20027;-82
2021/04/30 03:08:30;;;;;;;85.38;50.88;;;;;;;-143.98;100.00;68091.63;6284522;22;20036;-83
2021/04/30 03:10:57;;;;;;;90.68;51.45;;;;;;;-143.98;100.00;68091.63;6286812;22;20031;-83
2021/04/30 03:13:26;;;;;;;94.03;50.88;;;;;;;-143.98;100.00;68091.63;6260751;22;20030;-83
2021/04/30 03:15:55;;;;;;;82.90;47.47;;;;;;;-143.98;100.00;68091.63;6284536;22;20082;-83
2021/04/30 03:18:24;;;;;;;82.25;47.92;;;;;;;-143.98;100.00;68091.63;6283966;22;20016;-82
2021/04/30 03:21:00;;;;;;;81.60;47.15;;;;;;;-143.98;100.00;68091.63;6285396;22;20024;-83
2021/04/30 03:23:27;;;;;;;93.28;51.25;;;;;;;-143.98;100.00;68091.63;6286056;22;20035;-83
2021/04/30 03:25:53;;;;;;;100.70;55.88;;;;;;;-143.98;100.00;68091.63;6285448;22;20028;-83
2021/04/30 03:28:22;;;;;;;107.28;55.97;;;;;;;-143.98;100.00;68091.63;6285436;22;20031;-82
2021/04/30 03:30:51;;;;;;;104.15;54.78;;;;;;;-143.98;100.00;68091.63;6288687;22;20086;-83
2021/04/30 03:33:20;;;;;;;103.18;57.15;;;;;;;-143.98;100.00;68091.63;6234920;22;20035;-83
2021/04/30 03:35:46;;;;;;;98.10;53.80;;;;;;;-143.98;100.00;68091.63;6285463;22;20032;-83
2021/04/30 03:38:12;;;;;;;98.47;53.70;;;;;;;-143.98;100.00;68091.63;6283404;22;20038;-83
2021/04/30 03:40:39;;;;;;;98.72;54.55;;;;;;;-143.98;100.00;68091.63;6284014;22;20050;-82
2021/04/30 03:43:05;;;;;;;101.28;54.85;;;;;;;-143.98;100.00;68091.63;6285668;22;20354;-83
2021/04/30 03:45:32;;;;;;;98.60;55.63;;;;;;;-143.98;100.00;68091.63;6287070;22;20028;-83
2021/04/30 03:47:59;;;;;;;109.90;55.47;;;;;;;-143.98;100.00;68091.63;6262740;22;20047;-83
2021/04/30 03:50:25;;;;;;;96.20;54.80;;;;;;;-143.98;100.00;68091.63;6286420;22;20027;-83
2021/04/30 03:52:51;;;;;;;96.43;55.08;;;;;;;-143.98;100.00;68091.63;6285234;22;20037;-83
2021/04/30 03:55:17;;;;;;;106.90;55.75;;;;;;;-143.98;100.00;68091.63;6260610;22;20028;-83
2021/04/30 03:57:49;;;;;;;106.05;57.65;;;;;;;-143.98;100.00;68091.63;6259219;22;20042;-83
2021/04/30 04:00:16;;;;;;;101.50;56.50;;;;;;;-143.98;100.00;68091.63;6256658;22;20020;-83
2021/04/30 04:02:42;;;;;;;106.68;57.55;;;;;;;-143.98;100.00;68091.63;6228743;22;20043;-83
2021/04/30 04:05:09;;;;;;;99.25;54.00;;;;;;;-143.98;100.00;68091.63;6257950;22;20367;-83
2021/04/30 04:07:36;;;;;;;103.00;54.58;;;;;;;-143.98;100.00;68091.63;6284284;22;20034;-84
2021/04/30 04:10:03;;;;;;;96.75;52.50;;;;;;;-143.98;100.00;68091.63;6260338;22;20039;-84
2021/04/30 04:12:29;;;;;;;110.15;54.80;;;;;;;-143.98;100.00;68091.63;6287215;22;20039;-84
2021/04/30 04:15:04;;;;;;;110.13;57.10;;;;;;;-143.98;100.00;68091.63;6284216;22;20023;-84
2021/04/30 04:17:30;;;;;;;116.97;60.28;;;;;;;-143.98;100.00;68091.63;6259391;22;20099;-83
2021/04/30 04:19:57;;;;;;;119.72;60.00;;;;;;;-143.98;100.00;68091.63;6287893;22;20075;-83
2021/04/30 04:22:30;;;;;;;114.72;57.85;;;;;;;-143.98;100.00;68091.63;6295732;22;20035;-82
2021/04/30 04:24:56;;;;;;;120.28;58.75;;;;;;;-143.98;100.00;68091.63;6299294;22;20030;-83
2021/04/30 04:27:23;;;;;;;99.30;53.90;;;;;;;-143.98;100.00;68091.63;6284853;22;20051;-83
2021/04/30 04:29:51;;;;;;;101.22;55.78;;;;;;;-143.98;100.00;68091.63;6258533;22;20028;-83
2021/04/30 04:32:23;;;;;;;112.63;57.80;;;;;;;-143.98;100.00;68091.63;6284009;22;20028;-83
2021/04/30 04:34:49;;;;;;;112.47;57.47;;;;;;;-143.98;100.00;68091.63;6283419;22;20094;-83
2021/04/30 04:37:16;;;;;;;109.43;56.70;;;;;;;-143.98;100.00;68091.63;6283928;22;20038;-83
2021/04/30 04:39:42;;;;;;;106.50;56.92;;;;;;;-143.98;100.00;68091.63;6280058;22;20043;-83
2021/04/30 04:42:09;;;;;;;114.38;56.80;;;;;;;-143.98;100.00;68091.63;6279628;22;20329;-83
2021/04/30 04:44:37;;;;;;;111.10;59.47;;;;;;;-143.98;100.00;68091.63;6280772;22;20073;-83
2021/04/30 04:47:09;;;;;;;101.90;55.20;;;;;;;-143.98;100.00;68091.63;6281733;22;20055;-83
2021/04/30 04:49:41;;;;;;;108.53;56.95;;;;;;;-143.98;100.00;68091.63;6257840;22;20027;-83
2021/04/30 04:52:13;;;;;;;102.85;56.50;;;;;;;-143.98;100.00;68091.63;6308581;22;20066;-83
2021/04/30 04:54:45;;;;;;;105.15;56.67;;;;;;;-143.98;100.00;68091.63;6260426;22;20024;-84
2021/04/30 04:57:12;;;;;;;103.43;57.17;;;;;;;-143.98;100.00;68091.63;6281937;22;20032;-83
2021/04/30 04:59:38;;;;;;;108.90;61.33;;;;;;;-143.98;100.00;68091.63;6286100;22;20034;-81
2021/04/30 05:02:10;;;;;;;110.25;61.78;;;;;;;-143.98;100.00;68091.63;6285676;22;20023;-83
2021/04/30 05:04:38;;;;;;;115.03;64.53;;;;;;;-143.98;100.00;68091.63;6283592;22;20024;-83
2021/04/30 05:07:05;;;;;;;97.70;60.35;;;;;;;-143.98;100.00;68091.63;6285920;22;20030;-82
2021/04/30 05:09:31;;;;;;;90.75;57.85;;;;;;;-143.98;100.00;68091.63;6287962;22;20027;-82
2021/04/30 05:11:58;;;;;;;78.43;53.72;;;;;;;-143.98;100.00;68091.63;6272773;22;20044;-81
2021/04/30 05:14:24;;;;;;;69.40;49.70;;;;;;;-143.98;100.00;68091.63;6296838;22;20027;-81
2021/04/30 05:17:13;;;;;;;51.88;36.05;;;;;;;-143.98;100.00;68091.63;6285807;22;20038;-81
2021/04/30 05:19:44;;;;;;;50.95;36.67;;;;;;;-143.98;100.00;68091.63;6284095;22;20092;-81
2021/04/30 05:22:19;;;;;;;46.47;35.40;;;;;;;-143.98;100.00;68091.63;6265171;22;20038;-82
2021/04/30 05:24:46;;;;;;;52.38;34.65;;;;;;;-143.98;100.00;68091.63;6294461;22;20011;-82
2021/04/30 05:27:12;;;;;;;48.97;35.00;;;;;;;-143.98;100.00;68091.63;6286434;22;20066;-83
2021/04/30 05:29:41;;;;;;;46.67;33.72;;;;;;;-143.98;100.00;68091.63;6282868;22;20341;-82
2021/04/30 05:32:08;;;;;;;43.80;33.08;;;;;;;-143.98;100.00;68091.63;6282221;22;20397;-82
2021/04/30 05:34:39;;;;;;;49.65;34.88;;;;;;;-143.98;100.00;68091.63;6284223;22;20145;-82
2021/04/30 05:37:19;;;;;;;45.50;32.45;;;;;;;-143.98;100.00;68091.63;6284376;22;20098;-82
2021/04/30 05:39:45;;;;;;;41.28;31.80;;;;;;;-143.98;100.00;68091.63;6283355;22;20286;-82
2021/04/30 05:42:14;;;;;;;41.05;31.90;;;;;;;-143.98;100.00;68091.63;6282042;22;20084;-81
2021/04/30 05:44:47;;;;;;;46.90;34.30;;;;;;;-143.98;100.00;68091.63;6283426;22;20143;-83
2021/04/30 05:47:16;;;;;;;45.47;32.00;;;;;;;-143.98;100.00;68091.63;6279796;22;20023;-83
2021/04/30 05:49:42;;;;;;;44.42;31.98;;;;;;;-143.98;100.00;68091.63;6256966;22;20028;-82
2021/04/30 05:52:22;;;;;;;38.08;29.58;;;;;;;-143.98;100.00;68091.63;6281306;22;20039;-82
2021/04/30 05:54:48;;;;;;;42.15;31.10;;;;;;;-143.98;100.00;68091.63;6282122;22;20023;-83
2021/04/30 05:57:15;;;;;;;39.90;32.15;;;;;;;-143.98;100.00;68091.63;6281957;22;20280;-83
2021/04/30 05:59:44;;;;;;;43.60;29.65;;;;;;;-143.98;100.00;68091.63;6282852;22;20066;-82
2021/04/30 06:02:14;;;;;;;40.95;29.60;;;;;;;-143.98;100.00;68091.63;6281939;22;20027;-82
2021/04/30 06:04:40;;;;;;;42.72;30.17;;;;;;;-143.98;100.00;68091.63;6284474;22;20024;-82
2021/04/30 06:07:06;;;;;;;43.00;28.90;;;;;;;-143.98;100.00;68091.63;6258314;22;20078;-82
2021/04/30 06:09:51;;;;;;;35.83;27.63;;;;;;;-143.98;100.00;68091.63;6297096;22;20008;-82
2021/04/30 06:12:17;;;;;;;37.90;27.15;;;;;;;-143.98;100.00;68091.63;6297737;22;20011;-83
2021/04/30 06:14:44;;;;;;;36.65;26.48;;;;;;;-143.98;100.00;68091.63;6298225;22;20067;-83
2021/04/30 06:17:10;;;;;;;36.08;26.80;;;;;;;-143.98;100.00;68091.63;6292049;22;20167;-82
2021/04/30 06:19:45;;;;;;;35.05;24.65;;;;;;;-143.98;100.00;68091.63;6283020;22;20032;-82
2021/04/30 06:22:12;;;;;;;36.55;25.98;;;;;;;-143.98;100.00;68091.63;6282901;22;20035;-82
2021/04/30 06:24:40;;;;;;;31.95;24.35;;;;;;;-143.98;100.00;68091.63;6283199;22;20089;-83
2021/04/30 06:27:06;;;;;;;29.65;23.15;;;;;;;-143.98;100.00;68091.63;6287067;22;20031;-83
2021/04/30 06:29:33;;;;;;;28.55;20.95;;;;;;;-143.98;100.00;68091.63;6286595;22;20043;-83
2021/04/30 06:32:04;;;;;;;19.58;16.10;;;;;;;-143.98;100.00;68091.63;6257649;22;20046;-83
2021/04/30 06:34:35;;;;;;;24.05;17.17;;;;;;;-143.98;100.00;68091.63;6283797;22;20069;-81
2021/04/30 06:37:04;;;;;;;20.05;15.05;;;;;;;-143.98;100.00;68091.63;6282678;22;20038;-80
2021/04/30 06:39:48;;;;;;;21.77;16.60;;;;;;;-143.98;100.00;68091.63;6285139;22;20027;-82
2021/04/30 06:42:15;;;;;;;24.77;20.08;;;;;;;-143.98;100.00;68091.63;6283698;22;20483;-81
2021/04/30 06:44:44;;;;;;;28.83;19.48;;;;;;;-143.98;100.00;68091.63;6284478;22;20061;-82
2021/04/30 06:47:14;;;;;;;25.13;18.58;;;;;;;-143.98;100.00;68091.63;6285098;22;20027;-82
2021/04/30 06:49:40;;;;;;;24.92;18.75;;;;;;;-143.98;100.00;68091.63;6283938;22;20071;-83
2021/04/30 06:52:09;;;;;;;24.60;18.70;;;;;;;-143.98;100.00;68091.63;6284500;22;20024;-83
2021/04/30 06:54:38;;;;;;;23.73;18.40;;;;;;;-143.98;100.00;68091.63;6285840;22;20028;-81
2021/04/30 06:57:08;;;;;;;23.60;16.98;;;;;;;-143.98;100.00;68091.63;6286645;22;20051;-82
2021/04/30 06:59:37;;;;;;;28.33;18.35;;;;;;;-143.98;100.00;68091.63;6289334;22;20035;-82
2021/04/30 07:02:06;;;;;;;22.42;17.15;;;;;;;-143.98;100.00;68091.63;6264244;22;20020;-83
2021/04/30 07:04:57;;;;;;;21.30;17.13;;;;;;;-143.98;100.00;68091.63;6264773;22;20024;-80
2021/04/30 07:07:27;;;;;;;21.33;16.77;;;;;;;-143.98;100.00;68091.63;6284408;22;20028;-80
2021/04/30 07:09:53;;;;;;;22.17;17.23;;;;;;;-143.98;100.00;68091.63;6284358;22;20058;-81
2021/04/30 07:12:21;;;;;;;20.88;15.75;;;;;;;-143.98;100.00;68091.63;6308294;22;20043;-82
2021/04/30 07:14:47;;;;;;;20.13;14.55;;;;;;;-143.98;100.00;68091.63;6283287;22;20218;-81
2021/04/30 07:17:13;;;;;;;23.17;15.77;;;;;;;-143.98;100.00;68091.63;6283719;22;20186;-81
2021/04/30 07:19:40;;;;;;;23.00;15.82;;;;;;;-143.98;100.00;68091.63;6282792;22;20378;-81
2021/04/30 07:22:14;;;;;;;22.08;16.05;;;;;;;-143.98;100.00;68091.63;6257424;22;20248;-82
2021/04/30 07:24:46;;;;;;;23.33;16.13;;;;;;;-143.98;100.00;68091.63;6284284;22;20409;-82
2021/04/30 07:27:18;;;;;;;19.95;14.35;;;;;;;-143.98;100.00;68091.63;6284524;22;20024;-82
2021/04/30 07:29:50;;;;;;;;;;;;;;;-143.98;100.00;68091.63;6289380;22;20058;-81
2021/04/30 07:32:16;;;;;;;20.48;14.75;;;;;;;-143.98;100.00;68091.63;6295683;22;19947;-81
2021/04/30 07:34:49;;;;;;;23.88;15.18;;;;;;;-143.98;100.00;68091.63;6288486;22;20028;-80
2021/04/30 07:37:15;;;;;;;20.02;14.07;;;;;;;-143.98;100.00;68091.63;6283551;22;20033;-82
2021/04/30 07:39:43;;;;;;;24.40;15.10;;;;;;;-143.98;100.00;68091.63;6280702;22;20020;-81
2021/04/30 07:42:10;;;;;;;19.83;13.98;;;;;;;-143.98;100.00;68091.63;6280455;22;20024;-81
2021/04/30 07:44:43;;;;;;;19.25;14.48;;;;;;;-143.98;100.00;68091.63;6281309;22;20020;-81
2021/04/30 07:47:11;;;;;;;15.50;12.70;;;;;;;-143.98;100.00;68091.63;6281650;22;20102;-81
2021/04/30 07:49:37;;;;;;;17.48;12.80;;;;;;;-143.98;100.00;68091.63;6283822;22;20023;-81
2021/04/30 07:52:07;;;;;;;16.80;13.07;;;;;;;-143.98;100.00;68091.63;6283231;22;20169;-82
2021/04/30 07:54:40;;;;;;;14.45;12.52;;;;;;;-143.98;100.00;68091.63;6283074;22;20074;-81
2021/04/30 07:57:12;;;;;;;14.88;12.55;;;;;;;-143.98;100.00;68091.63;6283834;22;20074;-82
2021/04/30 07:59:48;;;;;;;12.65;11.23;;;;;;;-143.98;100.00;68091.63;6306317;22;20260;-81
2021/04/30 08:02:17;;;;;;;12.82;10.88;;;;;;;-143.98;100.00;68091.63;6281052;22;20024;-81
2021/04/30 08:04:47;;;;;;;13.13;10.90;;;;;;;-143.98;100.00;68091.63;6308707;22;20309;-81
2021/04/30 08:07:23;;;;;;;14.02;12.02;;;;;;;-143.98;100.00;68091.63;6307175;22;20038;-83
2021/04/30 08:09:49;;;;;;;14.60;11.57;;;;;;;-143.98;100.00;68091.63;6281622;22;20079;-82
2021/04/30 08:12:16;;;;;;;12.32;10.77;;;;;;;-143.98;100.00;68091.63;6282822;22;20028;-82
2021/04/30 08:14:44;;;;;;;14.25;11.85;;;;;;;-143.98;100.00;68091.63;6257891;22;20028;-82
2021/04/30 08:17:10;;;;;;;14.50;11.57;;;;;;;-143.98;100.00;68091.63;6282042;22;20050;-81
2021/04/30 08:19:37;;;;;;;12.68;10.70;;;;;;;-143.98;100.00;68091.63;6257162;22;20054;-81
2021/04/30 08:22:08;;;;;;;13.93;10.98;;;;;;;-143.98;100.00;68091.63;6283245;22;20023;-80
2021/04/30 08:24:35;;;;;;;13.30;11.32;;;;;;;-143.98;100.00;68091.63;6283438;22;20023;-81
2021/04/30 08:27:02;;;;;;;12.95;10.73;;;;;;;-143.98;100.00;68091.63;6262867;22;20031;-81
2021/04/30 08:29:36;;;;;;;17.40;11.35;;;;;;;-143.98;100.00;68091.63;6289534;22;20023;-81
2021/04/30 08:32:03;;;;;;;14.55;10.23;;;;;;;-143.98;100.00;68091.63;6296247;22;20019;-81
2021/04/30 08:34:30;;;;;;;10.90;9.43;;;;;;;-143.98;100.00;68091.63;6270865;22;20090;-83
2021/04/30 08:37:15;;;;;;;17.08;10.90;;;;;;;-143.98;100.00;68091.63;6287060;22;20110;-81
2021/04/30 08:39:44;;;;;;;10.13;9.05;;;;;;;-143.98;100.00;68091.63;6284998;22;20046;-81
2021/04/30 08:42:16;;;;;;;10.45;8.63;;;;;;;-143.98;100.00;68091.63;6291108;22;20023;-82
2021/04/30 08:44:42;;;;;;;12.52;9.95;;;;;;;-143.98;100.00;68091.63;6295824;22;20013;-80
2021/04/30 08:47:22;;;;;;;11.25;9.68;;;;;;;-143.98;100.00;68091.63;6291208;22;20095;-82
2021/04/30 08:49:54;;;;;;;12.55;9.48;;;;;;;-143.98;100.00;68091.63;6287554;22;20024;-83
2021/04/30 08:52:20;;;;;;;12.05;9.27;;;;;;;-143.98;100.00;68091.63;6285283;22;20051;-81
2021/04/30 08:54:54;;;;;;;10.48;8.98;;;;;;;-143.98;100.00;68091.63;6261808;22;20401;-81
2021/04/30 08:57:31;;;;;;;14.50;9.90;;;;;;;-143.98;100.00;68091.63;6285500;22;20023;-80
2021/04/30 09:00:00;;;;;;;12.52;9.35;;;;;;;-143.98;100.00;68091.63;6289896;22;20288;-84
2021/04/30 09:02:27;;;;;;;12.27;10.48;;;;;;;-143.98;100.00;68091.63;6247525;22;20092;-83
2021/04/30 09:04:55;;;;;;;9.02;8.00;;;;;;;-143.98;100.00;68091.63;6239015;22;20034;-82
2021/04/30 09:07:24;;;;;;;9.68;8.68;;;;;;;-143.98;100.00;68091.63;6238481;22;20028;-82
2021/04/30 09:10:19;;;;;;;12.73;9.77;;;;;;;-143.98;100.00;68091.63;6263126;22;20083;-83
2021/04/30 09:13:11;;;;;;;10.48;9.18;;;;;;;-143.98;100.00;68091.63;6237754;22;20027;-81
2021/04/30 09:15:40;;;;;;;10.05;8.23;;;;;;;-143.98;100.00;68091.63;6261255;22;20024;-81
2021/04/30 09:18:25;;;;;;;11.00;8.43;;;;;;;-143.98;100.00;68091.63;6262029;22;20023;-82
2021/04/30 09:21:05;;;;;;;13.57;9.63;;;;;;;-143.98;100.00;68091.63;6286470;22;20099;-81
2021/04/30 09:23:46;;;;;;;12.55;9.00;;;;;;;-143.98;100.00;68091.63;6238920;22;20035;-82
2021/04/30 09:26:40;;;;;;;10.77;9.00;;;;;;;-143.98;100.00;68091.63;6238777;22;20085;-81
2021/04/30 09:29:12;;;;;;;9.70;8.73;;;;;;;-143.98;100.00;68091.63;6234405;22;20024;-83
2021/04/30 09:31:40;;;;;;;11.32;8.38;;;;;;;-143.98;100.00;68091.63;6263532;22;20369;-82
2021/04/30 09:34:23;;;;;;;11.93;8.73;;;;;;;-143.98;100.00;68091.63;6262826;22;20095;-80
2021/04/30 09:37:04;;;;;;;9.85;8.90;;;;;;;-143.98;100.00;68091.63;6286309;22;20047;-81
2021/04/30 09:39:51;;;;;;;10.80;8.38;;;;;;;-143.98;100.00;68091.63;6258438;22;20223;-82
2021/04/30 09:42:21;;;;;;;11.10;9.70;;;;;;;-143.98;100.00;68091.63;6232851;22;20024;-81
2021/04/30 09:44:53;;;;;;;9.48;7.95;;;;;;;-143.98;100.00;68091.63;6259092;22;20110;-82
2021/04/30 09:47:22;;;;;;;10.00;8.85;;;;;;;-143.98;100.00;68091.63;6233151;22;20079;-81
2021/04/30 09:49:54;;;;;;;10.48;7.30;;;;;;;-143.98;100.00;68091.63;6232251;22;20381;-81
2021/04/30 09:52:22;;;;;;;10.02;7.78;;;;;;;-143.98;100.00;68091.63;6260606;22;20045;-82
2021/04/30 09:54:50;;;;;;;12.23;8.07;;;;;;;-143.98;100.00;68091.63;6261630;22;20038;-80
2021/04/30 09:57:23;;;;;;;8.77;7.75;;;;;;;-143.98;100.00;68091.63;6232700;22;20027;-82
2021/04/30 09:59:55;;;;;;;9.40;7.63;;;;;;;-143.98;100.00;68091.63;6233639;22;20084;-80
2021/04/30 10:02:23;;;;;;;9.77;7.20;;;;;;;-143.98;100.00;68091.63;6283911;22;20032;-80
2021/04/30 10:04:53;;;;;;;9.77;7.40;;;;;;;-143.98;100.00;68091.63;6230893;22;20394;-81
2021/04/30 10:08:06;;;;;;;8.65;6.97;;;;;;;-143.98;100.00;68091.63;6258407;22;20389;-82
2021/04/30 10:10:37;;;;;;;8.43;7.25;;;;;;;-143.98;100.00;68091.63;6284974;22;20028;-84
2021/04/30 10:13:07;;;;;;;10.02;7.72;;;;;;;-143.98;100.00;68091.63;6256487;22;20015;-83
2021/04/30 10:15:53;;;;;;;7.40;6.70;;;;;;;-143.98;100.00;68091.63;6217022;23;20198;-82
2021/04/30 10:18:19;;;;;;;6.63;6.00;;;;;;;-143.98;100.00;68091.63;6236409;23;20011;-80
2021/04/30 10:20:46;;;;;;;7.40;5.50;;;;;;;-143.98;100.00;68091.63;6232670;23;20251;-81
2021/04/30 10:23:23;;;;;;;5.45;4.50;;;;;;;-143.98;100.00;68091.63;6200661;23;20123;-80
2021/04/30 10:25:52;;;;;;;6.60;5.60;;;;;;;-143.98;100.00;68091.63;6225579;23;20089;-80
2021/04/30 10:28:24;;;;;;;7.82;6.28;;;;;;;-143.98;100.00;68091.63;6223709;23;20213;-80
2021/04/30 10:31:07;;;;;;;6.60;5.28;;;;;;;-143.98;100.00;68091.63;6196741;23;20103;-80
2021/04/30 10:33:42;;;;;;;8.02;6.78;;;;;;;-143.98;100.00;68091.63;6245407;23;20166;-81
2021/04/30 10:36:20;;;;;;;8.05;7.03;;;;;;;-143.98;100.00;68091.63;6199307;23;20024;-81
2021/04/30 10:38:53;;;;;;;6.55;5.57;;;;;;;-143.98;100.00;68091.63;6234592;23;20016;-80
2021/04/30 10:41:34;;;;;;;5.53;4.70;;;;;;;-143.98;100.00;68091.63;6207852;23;20333;-80
2021/04/30 10:44:27;;;;;;;6.53;5.43;;;;;;;-143.98;100.00;68091.63;6224982;23;20219;-82
2021/04/30 10:47:14;;;;;;;6.82;5.88;;;;;;;-143.98;100.00;68091.63;6222893;23;20082;-80
2021/04/30 10:50:14;;;;;;;6.70;6.00;;;;;;;-143.98;100.00;68091.63;6249637;23;20345;-80
2021/04/30 10:52:41;;;;;;;7.25;5.88;;;;;;;-143.98;100.00;68091.63;6171784;23;20028;-81
2021/04/30 10:55:10;;;;;;;7.32;6.45;;;;;;;-143.98;100.00;68091.63;6251396;23;20322;-81
2021/04/30 10:57:57;;;;;;;7.18;6.35;;;;;;;-143.98;100.00;68091.63;6224668;23;20394;-82
2021/04/30 11:00:40;;;;;;;7.63;6.60;;;;;;;-143.98;100.00;68091.63;6248315;23;20030;-79
2021/04/30 11:03:24;;;;;;;9.50;6.68;;;;;;;-143.98;100.00;68091.63;6224229;23;20032;-80
2021/04/30 11:06:04;;;;;;;7.65;6.03;;;;;;;-143.98;100.00;68091.63;6201888;23;20050;-82
2021/04/30 11:08:55;;;;;;;6.45;5.82;;;;;;;-143.98;100.00;68091.63;6249813;23;20107;-80
2021/04/30 11:11:40;;;;;;;7.13;6.10;;;;;;;-143.98;100.00;68091.63;6198651;23;20027;-80
2021/04/30 11:14:19;;;;;;;6.85;5.90;;;;;;;-143.98;100.00;68091.63;6211257;22;20008;-82